createdAt,value
2022-12-08T00:01:46.782Z,5.20
2022-12-08T00:04:26.239Z,5.33
2022-12-08T00:07:16.595Z,5.35
2022-12-08T00:09:54.106Z,5.16
2022-12-08T00:12:39.065Z,5.43
2022-12-08T00:15:08.991Z,5.46
2022-12-08T00:17:40.704Z,5.47
2022-12-08T00:20:14.059Z,5.51
2022-12-08T00:22:49.434Z,5.45
2022-12-08T00:25:20.108Z,5.45
2022-12-08T00:27:51.963Z,5.57
2022-12-08T00:30:22.917Z,5.60
2022-12-08T00:33:05.321Z,5.44
2022-12-08T00:35:35.638Z,5.51
2022-12-08T00:38:09.496Z,5.57
2022-12-08T00:40:38.342Z,5.78
2022-12-08T00:43:11.572Z,5.51
2022-12-08T00:45:42.545Z,5.46
2022-12-08T00:48:11.359Z,5.65
2022-12-08T00:50:42.267Z,5.46
2022-12-08T00:53:16.065Z,5.34
2022-12-08T00:55:46.697Z,5.34
2022-12-08T00:58:21.978Z,5.60
2022-12-08T01:00:51.756Z,5.40
2022-12-08T01:03:34.098Z,5.49
2022-12-08T01:06:15.755Z,5.62
2022-12-08T01:08:56.760Z,5.42
2022-12-08T01:11:25.903Z,5.39
2022-12-08T01:14:00.150Z,5.43
2022-12-08T01:16:38.640Z,5.43
2022-12-08T01:19:07.950Z,5.56
2022-12-08T01:21:39.009Z,5.42
2022-12-08T01:24:16.399Z,5.51
2022-12-08T01:26:47.208Z,5.47
2022-12-08T01:29:32.264Z,5.40
2022-12-08T01:32:09.259Z,5.42
2022-12-08T01:34:42.009Z,5.31
2022-12-08T01:37:16.480Z,5.30
2022-12-08T01:39:44.613Z,5.19
2022-12-08T01:42:25.113Z,5.17
2022-12-08T01:45:03.787Z,5.33
2022-12-08T01:47:49.458Z,5.16
2022-12-08T01:50:27.409Z,5.17
2022-12-08T01:53:01.179Z,4.94
2022-12-08T01:55:35.210Z,5.05
2022-12-08T01:58:16.763Z,4.98
2022-12-08T02:00:52.711Z,4.97
2022-12-08T02:03:31.439Z,5.10
2022-12-08T02:06:12.614Z,5.11
2022-12-08T02:08:47.825Z,4.93
2022-12-08T02:11:20.362Z,4.99
2022-12-08T02:13:51.426Z,5.04
2022-12-08T02:16:40.896Z,5.07
2022-12-08T02:19:31.654Z,5.05
2022-12-08T02:22:02.779Z,5.14
2022-12-08T02:24:41.370Z,5.25
2022-12-08T02:27:22.965Z,5.24
2022-12-08T02:30:16.636Z,5.06
2022-12-08T02:33:30.879Z,5.00
2022-12-08T02:36:13.375Z,5.05
2022-12-08T02:38:51.234Z,5.24
2022-12-08T02:41:28.951Z,5.30
2022-12-08T02:44:04.102Z,5.29
2022-12-08T02:46:45.237Z,5.42
2022-12-08T02:49:19.433Z,5.33
2022-12-08T02:51:50.026Z,5.43
2022-12-08T02:54:22.545Z,5.34
2022-12-08T02:57:11.951Z,5.23
2022-12-08T02:59:58.969Z,5.36
2022-12-08T03:02:45.724Z,5.42
2022-12-08T03:05:33.811Z,5.33
2022-12-08T03:08:08.065Z,5.28
2022-12-08T03:10:41.563Z,5.24
2022-12-08T03:13:16.855Z,5.35
2022-12-08T03:15:53.714Z,5.48
2022-12-08T03:18:36.772Z,5.31
2022-12-08T03:21:05.942Z,5.39
2022-12-08T03:23:41.205Z,5.33
2022-12-08T03:26:15.833Z,5.33
2022-12-08T03:28:53.017Z,5.26
2022-12-08T03:31:27.572Z,5.13
2022-12-08T03:33:58.111Z,5.28
2022-12-08T03:36:36.579Z,5.24
2022-12-08T03:39:12.589Z,5.13
2022-12-08T03:41:40.610Z,5.24
2022-12-08T03:44:08.837Z,5.25
2022-12-08T03:46:36.830Z,5.22
2022-12-08T03:49:05.025Z,5.08
2022-12-08T03:51:33.016Z,5.10
2022-12-08T03:54:01.067Z,4.91
2022-12-08T03:56:32.954Z,4.95
2022-12-08T03:59:01.101Z,4.99
2022-12-08T04:01:29.240Z,4.94
2022-12-08T04:03:57.337Z,4.89
2022-12-08T04:06:25.850Z,4.93
2022-12-08T04:08:53.954Z,5.03
2022-12-08T04:11:22.499Z,5.07
2022-12-08T04:13:51.917Z,4.96
2022-12-08T04:16:22.112Z,4.95
2022-12-08T04:18:50.299Z,4.98
2022-12-08T04:21:18.396Z,5.03
2022-12-08T04:23:47.128Z,4.91
2022-12-08T04:26:15.638Z,4.99
2022-12-08T04:28:43.686Z,4.95
2022-12-08T04:31:13.164Z,4.97
2022-12-08T04:33:41.339Z,4.96
2022-12-08T04:36:10.500Z,4.99
2022-12-08T04:38:38.490Z,4.90
2022-12-08T04:41:06.533Z,4.89
2022-12-08T04:43:34.545Z,4.77
2022-12-08T04:46:02.567Z,4.79
2022-12-08T04:48:31.978Z,4.92
2022-12-08T04:50:59.964Z,4.91
2022-12-08T04:53:27.947Z,5.02
2022-12-08T04:55:56.169Z,5.07
2022-12-08T04:58:24.138Z,4.90
2022-12-08T05:00:52.297Z,4.89
2022-12-08T05:03:26.720Z,4.76
2022-12-08T05:05:57.794Z,4.90
2022-12-08T05:08:27.242Z,4.91
2022-12-08T05:11:06.829Z,4.70
2022-12-08T05:13:36.005Z,4.86
2022-12-08T05:16:09.400Z,4.72
2022-12-08T05:18:46.734Z,4.68
2022-12-08T05:21:29.292Z,4.69
2022-12-08T05:24:03.899Z,4.66
2022-12-08T05:26:35.099Z,4.90
2022-12-08T05:29:06.437Z,4.89
2022-12-08T05:31:44.389Z,4.55
2022-12-08T05:34:15.304Z,4.60
2022-12-08T05:36:59.449Z,4.65
2022-12-08T05:39:27.774Z,4.74
2022-12-08T05:41:56.961Z,4.46
2022-12-08T05:44:28.219Z,4.67
2022-12-08T05:46:57.592Z,4.72
2022-12-08T05:49:26.261Z,4.60
2022-12-08T05:52:03.722Z,4.85
2022-12-08T05:54:47.782Z,4.78
2022-12-08T05:57:25.607Z,4.78
2022-12-08T06:00:02.296Z,4.69
2022-12-08T06:02:43.811Z,4.66
2022-12-08T06:05:12.677Z,4.78
2022-12-08T06:07:42.849Z,4.86
2022-12-08T06:10:15.100Z,4.71
2022-12-08T06:12:45.997Z,4.52
2022-12-08T06:15:21.887Z,4.75
2022-12-08T06:17:52.529Z,4.82
2022-12-08T06:20:23.365Z,4.81
2022-12-08T06:23:05.812Z,4.80
2022-12-08T06:25:37.724Z,4.77
2022-12-08T06:28:07.511Z,4.84
2022-12-08T06:30:39.044Z,5.03
2022-12-08T06:33:07.542Z,4.91
2022-12-08T06:35:36.556Z,4.88
2022-12-08T06:38:19.476Z,4.89
2022-12-08T06:40:57.944Z,4.77
2022-12-08T06:43:29.775Z,4.66
2022-12-08T06:46:11.257Z,4.82
2022-12-08T06:48:45.080Z,4.99
2022-12-08T06:51:15.941Z,4.79
2022-12-08T06:53:48.335Z,4.72
2022-12-08T06:56:28.569Z,4.53
2022-12-08T06:58:56.856Z,4.72
2022-12-08T07:01:39.524Z,4.57
2022-12-08T07:04:14.935Z,4.74
2022-12-08T07:06:52.633Z,4.85
2022-12-08T07:09:25.139Z,4.93
2022-12-08T07:11:54.088Z,5.03
2022-12-08T07:14:25.762Z,5.05
2022-12-08T07:16:56.533Z,4.88
2022-12-08T07:19:30.565Z,4.83
2022-12-08T07:21:59.000Z,5.05
2022-12-08T07:24:37.231Z,4.97
2022-12-08T07:27:19.443Z,4.99
2022-12-08T07:29:50.978Z,5.04
2022-12-08T07:32:27.661Z,5.09
2022-12-08T07:34:56.176Z,5.02
2022-12-08T07:37:27.081Z,5.20
2022-12-08T07:39:59.252Z,5.22
2022-12-08T07:42:35.673Z,5.05
2022-12-08T07:45:05.493Z,5.22
2022-12-08T07:47:42.493Z,5.25
2022-12-08T07:50:13.161Z,5.28
2022-12-08T07:52:45.025Z,5.21
2022-12-08T07:55:22.315Z,5.08
2022-12-08T07:58:12.109Z,5.22
2022-12-08T08:00:55.957Z,5.38
2022-12-08T08:03:24.870Z,5.25
2022-12-08T08:05:59.861Z,5.25
2022-12-08T08:08:33.468Z,5.41
2022-12-08T08:11:15.795Z,5.38
2022-12-08T08:13:50.949Z,5.47
2022-12-08T08:16:26.009Z,5.53
2022-12-08T08:19:03.215Z,5.47
2022-12-08T08:21:45.486Z,5.60
2022-12-08T08:24:17.474Z,5.25
2022-12-08T08:26:50.483Z,5.33
2022-12-08T08:29:19.073Z,5.58
2022-12-08T08:31:58.380Z,5.70
2022-12-08T08:34:28.692Z,5.56
2022-12-08T08:37:00.511Z,5.47
2022-12-08T08:39:31.953Z,5.64
2022-12-08T08:42:12.776Z,5.69
2022-12-08T08:44:44.925Z,5.86
2022-12-08T08:47:17.543Z,5.79
2022-12-08T08:49:48.914Z,5.71
2022-12-08T08:52:19.783Z,5.61
2022-12-08T08:54:51.639Z,5.77
2022-12-08T08:57:28.339Z,5.86
2022-12-08T09:00:04.146Z,5.82
2022-12-08T09:02:36.074Z,5.76
2022-12-08T09:05:04.885Z,5.73
2022-12-08T09:07:34.055Z,5.75
2022-12-08T09:10:04.203Z,6.00
2022-12-08T09:12:45.871Z,5.84
2022-12-08T09:15:16.389Z,5.82
2022-12-08T09:17:59.345Z,5.94
2022-12-08T09:20:31.148Z,5.90
2022-12-08T09:23:35.375Z,6.03
2022-12-08T09:26:13.939Z,5.95
2022-12-08T09:28:46.456Z,5.94
2022-12-08T09:31:25.966Z,6.15
2022-12-08T09:33:58.816Z,6.35
2022-12-08T09:36:34.122Z,6.26
2022-12-08T09:39:11.232Z,6.31
2022-12-08T09:41:53.096Z,6.12
2022-12-08T09:45:06.515Z,6.21
2022-12-08T09:48:08.929Z,6.32
2022-12-08T09:50:45.778Z,6.63
2022-12-08T09:53:22.718Z,6.82
2022-12-08T09:55:56.906Z,6.59
2022-12-08T09:58:35.782Z,6.73
2022-12-08T10:01:06.469Z,6.87
2022-12-08T10:03:43.688Z,6.72
2022-12-08T10:06:26.899Z,6.66
2022-12-08T10:09:12.331Z,6.85
2022-12-08T10:11:51.008Z,6.61
2022-12-08T10:14:28.051Z,6.66
2022-12-08T10:17:09.423Z,6.75
2022-12-08T10:19:39.741Z,6.69
2022-12-08T10:22:22.879Z,6.65
2022-12-08T10:25:00.353Z,6.58
2022-12-08T10:27:36.799Z,6.79
2022-12-08T10:30:20.004Z,6.77
2022-12-08T10:32:52.328Z,6.83
2022-12-08T10:35:28.526Z,6.83
2022-12-08T10:38:00.721Z,6.63
2022-12-08T10:40:36.878Z,6.80
2022-12-08T10:43:20.866Z,6.95
2022-12-08T10:45:54.786Z,7.27
2022-12-08T10:48:27.857Z,6.87
2022-12-08T10:50:58.028Z,6.94
2022-12-08T10:53:29.513Z,6.90
2022-12-08T10:56:08.543Z,6.98
2022-12-08T10:58:40.699Z,7.21
2022-12-08T11:01:13.450Z,6.99
2022-12-08T11:03:46.853Z,6.95
2022-12-08T11:06:17.707Z,6.97
2022-12-08T11:08:49.907Z,7.16
2022-12-08T11:11:18.359Z,6.96
2022-12-08T11:13:49.485Z,7.09
2022-12-08T11:16:18.575Z,7.24
2022-12-08T11:18:49.998Z,7.23
2022-12-08T11:21:20.204Z,7.03
2022-12-08T11:23:49.989Z,7.00
2022-12-08T11:26:22.386Z,7.19
2022-12-08T11:28:50.675Z,7.08
2022-12-08T11:31:29.067Z,6.70
2022-12-08T11:33:58.745Z,6.97
2022-12-08T11:36:28.481Z,6.97
2022-12-08T11:38:58.679Z,6.74
2022-12-08T11:41:28.827Z,6.67
2022-12-08T11:44:02.766Z,6.85
2022-12-08T11:46:34.493Z,6.71
2022-12-08T11:49:06.903Z,6.82
2022-12-08T11:51:38.025Z,6.78
2022-12-08T11:54:18.076Z,7.27
2022-12-08T11:56:48.389Z,7.40
2022-12-08T11:59:25.481Z,7.22
2022-12-08T12:01:53.754Z,7.23
2022-12-08T12:04:27.918Z,7.47
2022-12-08T12:07:14.354Z,7.54
2022-12-08T12:09:53.034Z,7.60
2022-12-08T12:12:36.407Z,7.77
2022-12-08T12:15:32.864Z,7.30
2022-12-08T12:18:03.156Z,7.58
2022-12-08T12:20:35.122Z,7.31
2022-12-08T12:23:06.517Z,7.05
2022-12-08T12:25:36.088Z,7.07
2022-12-08T12:28:14.208Z,6.68
2022-12-08T12:31:04.590Z,6.93
2022-12-08T12:33:35.970Z,6.91
2022-12-08T12:36:11.549Z,6.86
2022-12-08T12:39:09.970Z,6.85
2022-12-08T12:41:49.905Z,6.69
2022-12-08T12:44:44.686Z,6.58
2022-12-08T12:47:24.043Z,6.64
2022-12-08T12:50:12.805Z,6.53
2022-12-08T12:52:44.227Z,6.52
2022-12-08T12:55:55.839Z,6.51
2022-12-08T12:58:44.286Z,6.39
2022-12-08T13:01:55.751Z,6.29
2022-12-08T13:04:32.734Z,6.37
2022-12-08T13:07:15.317Z,6.33
2022-12-08T13:09:58.586Z,6.40
2022-12-08T13:12:28.286Z,6.64
2022-12-08T13:15:02.729Z,6.56
2022-12-08T13:17:41.823Z,6.37
2022-12-08T13:20:24.439Z,6.39
2022-12-08T13:23:30.113Z,6.77
2022-12-08T13:26:19.227Z,6.54
2022-12-08T13:29:19.910Z,6.31
2022-12-08T13:32:07.692Z,6.42
2022-12-08T13:34:50.042Z,6.19
2022-12-08T13:37:27.946Z,6.30
2022-12-08T13:40:10.069Z,6.13
2022-12-08T13:42:55.517Z,6.12
2022-12-08T13:46:04.365Z,6.24
2022-12-08T13:48:42.310Z,6.14
2022-12-08T13:57:12.225Z,6.12
2022-12-08T13:59:51.490Z,6.04
2022-12-08T14:02:34.761Z,6.10
2022-12-08T14:05:21.704Z,6.27
2022-12-08T14:07:57.286Z,6.33
2022-12-08T14:10:33.070Z,6.10
2022-12-08T14:13:08.902Z,6.04
2022-12-08T14:15:41.744Z,6.10
2022-12-08T14:18:36.210Z,6.18
2022-12-08T14:21:22.560Z,6.11
2022-12-08T14:23:59.207Z,6.01
2022-12-08T14:26:28.400Z,6.07
2022-12-08T14:29:00.192Z,6.14
2022-12-08T14:31:30.578Z,6.06
2022-12-08T14:34:00.500Z,6.19
2022-12-08T14:36:33.708Z,5.93
2022-12-08T14:39:08.057Z,6.10
2022-12-08T14:41:40.613Z,6.07
2022-12-08T14:44:25.556Z,5.83
2022-12-08T14:47:10.903Z,5.91
2022-12-08T14:49:41.925Z,5.97
2022-12-08T14:52:15.369Z,6.02
2022-12-08T14:54:56.142Z,5.94
2022-12-08T14:57:34.900Z,6.05
2022-12-08T15:00:18.405Z,5.81
2022-12-08T15:02:54.991Z,5.93
2022-12-08T15:05:31.303Z,5.93
2022-12-08T15:08:04.278Z,6.04
2022-12-08T15:10:41.649Z,5.97
2022-12-08T15:13:24.037Z,5.95
2022-12-08T15:15:55.849Z,5.96
2022-12-08T15:18:36.784Z,6.01
2022-12-08T15:21:11.115Z,6.15
2022-12-08T15:23:45.796Z,5.94
2022-12-08T15:26:23.120Z,5.77
2022-12-08T15:29:05.280Z,5.93
2022-12-08T15:31:44.151Z,5.99
2022-12-08T15:34:17.783Z,5.88
2022-12-08T15:36:52.195Z,5.97
2022-12-08T15:39:36.861Z,5.78
2022-12-08T15:42:10.298Z,5.74
2022-12-08T15:44:41.587Z,5.81
2022-12-08T15:47:17.870Z,5.92
2022-12-08T15:49:57.090Z,5.89
2022-12-08T15:52:35.929Z,5.86
2022-12-08T15:55:04.473Z,5.79
2022-12-08T15:58:30.762Z,5.82
2022-12-08T16:09:28.304Z,5.69
2022-12-08T16:12:15.297Z,5.95
2022-12-08T16:17:53.637Z,5.79
2022-12-08T16:20:32.749Z,5.69
2022-12-08T16:23:41.548Z,5.76
2022-12-08T16:26:35.526Z,5.80
2022-12-08T16:29:07.046Z,5.71
2022-12-08T16:31:38.064Z,5.69
2022-12-08T16:34:15.841Z,5.74
2022-12-08T16:36:47.877Z,5.86
2022-12-08T16:39:27.778Z,5.74
2022-12-08T16:42:14.662Z,5.81
2022-12-08T16:44:46.636Z,5.77
2022-12-08T16:47:28.861Z,5.76
2022-12-08T16:49:59.656Z,5.78
2022-12-08T16:52:44.420Z,5.95
2022-12-08T16:55:19.592Z,5.90
2022-12-08T16:57:50.754Z,5.85
2022-12-08T17:00:22.521Z,5.70
2022-12-08T17:02:52.268Z,5.73
2022-12-08T17:05:23.005Z,5.80
2022-12-08T17:08:02.796Z,5.82
2022-12-08T17:10:43.566Z,5.68
2022-12-08T17:13:29.435Z,5.65
2022-12-08T17:15:58.381Z,5.54
2022-12-08T17:18:27.805Z,5.72
2022-12-08T17:21:12.384Z,5.78
2022-12-08T17:23:51.298Z,5.77
2022-12-08T17:26:36.107Z,5.57
2022-12-08T17:29:16.888Z,5.72
2022-12-08T17:31:45.730Z,5.69
2022-12-08T17:34:18.226Z,5.44
2022-12-08T17:36:56.489Z,5.54
2022-12-08T17:39:28.848Z,5.60
2022-12-08T17:42:08.364Z,5.70
2022-12-08T17:44:58.301Z,5.45
2022-12-08T17:47:39.957Z,5.74
2022-12-08T17:50:27.988Z,5.70
2022-12-08T17:52:58.521Z,5.66
2022-12-08T17:55:33.161Z,5.63
2022-12-08T17:58:07.734Z,5.70
2022-12-08T18:00:36.847Z,5.79
2022-12-08T18:03:19.762Z,5.74
2022-12-08T18:06:05.573Z,5.75
2022-12-08T18:08:38.271Z,5.51
2022-12-08T18:11:12.632Z,5.68
2022-12-08T18:13:45.866Z,5.65
2022-12-08T18:16:27.747Z,5.62
2022-12-08T18:18:58.387Z,5.56
2022-12-08T18:21:28.716Z,5.71
2022-12-08T18:24:09.855Z,5.75
2022-12-08T18:26:44.964Z,5.79
2022-12-08T18:29:23.359Z,5.67
2022-12-08T18:32:03.791Z,5.65
2022-12-08T18:34:38.825Z,5.71
2022-12-08T18:37:14.042Z,5.70
2022-12-08T18:39:49.735Z,5.54
2022-12-08T18:42:40.704Z,5.54
2022-12-08T18:45:36.275Z,5.64
2022-12-08T18:48:20.840Z,5.60
2022-12-08T18:50:52.423Z,5.59
2022-12-08T18:53:31.208Z,5.74
2022-12-08T18:56:04.493Z,5.77
2022-12-08T18:58:41.763Z,5.63
2022-12-08T19:01:21.766Z,5.80
2022-12-08T19:04:19.993Z,5.52
2022-12-08T19:06:50.847Z,5.48
2022-12-08T19:09:30.557Z,5.68
2022-12-08T19:12:06.293Z,5.68
2022-12-08T19:14:45.872Z,5.61
2022-12-08T19:17:33.181Z,5.48
2022-12-08T19:20:11.980Z,5.50
2022-12-08T19:22:49.617Z,5.58
2022-12-08T19:25:25.967Z,5.60
2022-12-08T19:28:03.130Z,5.54
2022-12-08T19:30:39.686Z,5.52
2022-12-08T19:36:23.188Z,5.54
2022-12-08T19:39:21.209Z,5.63
2022-12-08T19:42:12.850Z,5.56
2022-12-08T19:45:00.849Z,5.57
2022-12-08T19:47:46.651Z,5.60
2022-12-08T19:50:40.813Z,5.49
2022-12-08T19:53:19.111Z,5.54
2022-12-08T19:55:58.808Z,5.39
2022-12-08T19:58:29.762Z,5.37
2022-12-08T20:01:05.538Z,5.53
2022-12-08T20:03:36.926Z,5.40
2022-12-08T20:06:20.802Z,5.52
2022-12-08T20:09:04.832Z,5.56
2022-12-08T20:11:54.633Z,5.53
2022-12-08T20:14:30.772Z,5.65
2022-12-08T20:17:04.210Z,5.36
2022-12-08T20:19:38.912Z,5.50
2022-12-08T20:22:30.158Z,5.41
2022-12-08T20:25:06.553Z,5.44
2022-12-08T20:27:51.117Z,5.68
2022-12-08T20:30:25.341Z,5.57
2022-12-08T20:33:08.578Z,5.46
2022-12-08T20:35:41.143Z,5.48
2022-12-08T20:38:21.593Z,5.41
2022-12-08T20:40:51.155Z,5.50
2022-12-08T20:43:20.836Z,5.26
2022-12-08T20:45:50.319Z,5.61
2022-12-08T20:48:19.686Z,5.54
2022-12-08T20:50:52.322Z,5.41
2022-12-08T20:53:23.118Z,5.56
2022-12-08T20:55:55.874Z,5.54
2022-12-08T20:58:25.065Z,5.61
2022-12-08T21:00:54.126Z,5.61
2022-12-08T21:03:23.620Z,5.48
2022-12-08T21:05:53.556Z,5.61
2022-12-08T21:08:26.432Z,5.56
2022-12-08T21:10:57.953Z,5.53
2022-12-08T21:13:26.218Z,5.59
2022-12-08T21:15:54.957Z,5.46
2022-12-08T21:18:24.431Z,5.62
2022-12-08T21:20:54.095Z,5.70
2022-12-08T21:23:23.577Z,5.68
2022-12-08T21:25:52.048Z,5.55
2022-12-08T21:28:20.309Z,5.62
2022-12-08T21:30:48.429Z,5.41
2022-12-08T21:33:17.857Z,5.43
2022-12-08T21:35:46.305Z,5.64
2022-12-08T21:38:14.622Z,5.53
2022-12-08T21:40:44.249Z,5.45
2022-12-08T21:43:13.707Z,5.59
2022-12-08T21:45:42.044Z,5.61
2022-12-08T21:48:11.881Z,5.51
2022-12-08T21:50:40.431Z,5.68
2022-12-08T21:53:08.754Z,5.52
2022-12-08T21:55:37.238Z,5.70
2022-12-08T21:58:07.247Z,5.52
2022-12-08T22:00:35.620Z,5.61
2022-12-08T22:03:04.168Z,5.67
2022-12-08T22:05:32.543Z,5.62
2022-12-08T22:08:00.792Z,5.69
2022-12-08T22:10:29.270Z,5.62
2022-12-08T22:12:57.523Z,5.64
2022-12-08T22:15:29.808Z,5.58
2022-12-08T22:17:58.147Z,5.55
2022-12-08T22:20:26.419Z,5.60
2022-12-08T22:22:54.677Z,5.47
2022-12-08T22:25:23.018Z,5.64
2022-12-08T22:27:51.285Z,5.61
2022-12-08T22:30:19.583Z,5.48
2022-12-08T22:32:49.196Z,5.47
2022-12-08T22:35:17.561Z,5.35
2022-12-08T22:37:49.221Z,5.36
2022-12-08T22:40:17.759Z,5.33
2022-12-08T22:42:46.211Z,5.42
2022-12-08T22:45:14.683Z,5.33
2022-12-08T22:47:42.971Z,5.30
2022-12-08T22:50:13.100Z,5.33
2022-12-08T22:52:41.476Z,5.42
2022-12-08T22:55:10.228Z,5.39
2022-12-08T22:57:38.768Z,5.50
2022-12-08T23:00:11.938Z,5.40
2022-12-08T23:02:40.447Z,5.33
2022-12-08T23:05:09.468Z,5.33
2022-12-08T23:07:40.296Z,5.32
2022-12-08T23:10:10.764Z,5.47
2022-12-08T23:12:39.265Z,5.50
2022-12-08T23:15:08.755Z,5.17
2022-12-08T23:17:37.172Z,5.24
2022-12-08T23:20:06.966Z,5.30
2022-12-08T23:22:35.280Z,5.31
2022-12-08T23:25:07.757Z,5.24
2022-12-08T23:27:39.608Z,5.34
2022-12-08T23:30:10.227Z,5.26
2022-12-08T23:32:42.281Z,5.18
2022-12-08T23:35:12.840Z,5.24
2022-12-08T23:37:42.412Z,5.23
2022-12-08T23:40:16.318Z,5.28
2022-12-08T23:42:47.474Z,5.22
2022-12-08T23:45:19.998Z,5.25
2022-12-08T23:47:48.502Z,5.24
2022-12-08T23:50:28.550Z,5.41
2022-12-08T23:53:01.161Z,5.29
2022-12-08T23:55:36.340Z,5.20
2022-12-08T23:58:07.480Z,5.27
